Time;durP1;ratioP1;P1;durP2;ratioP2;P2;SDS_P1;SDS_P2;PMS_P1;PMS_P2;Temp;Humidity;BMP_temperature;BMP_pressure;BME280_temperature;BME280_humidity;BME280_pressure;Samples;Min_cycle;Max_cycle;Signal;HPM_P1;HPM_P2
2023/06/24 00:02:17;;;;;;;5.68;3.30;;;16.00;99.90;;;15.75;100.00;98075.50;5031325;28;20642;-37
2023/06/24 00:04:43;;;;;;;3.95;2.72;;;16.00;99.90;;;15.79;100.00;98087.72;5027266;28;20457;-39
2023/06/24 00:07:08;;;;;;;5.38;3.20;;;15.90;99.90;;;15.76;100.00;98093.19;5032716;28;20028;-39
2023/06/24 00:09:34;;;;;;;4.25;3.05;;;15.90;99.90;;;15.72;100.00;98097.75;5030878;28;20368;-38
2023/06/24 00:12:00;;;;;;;4.43;2.90;;;15.80;99.90;;;15.67;100.00;98099.78;5034252;28;20040;-37
2023/06/24 00:14:27;;;;;;;4.00;3.03;;;15.80;99.90;;;15.62;100.00;98096.44;5016338;28;20080;-38
2023/06/24 00:16:56;;;;;;;4.22;2.90;;;15.70;99.90;;;15.58;100.00;98102.84;5020616;28;20029;-38
2023/06/24 00:19:24;;;;;;;4.35;3.20;;;15.70;99.90;;;15.54;100.00;98099.47;5025105;28;20055;-39
2023/06/24 00:21:51;;;;;;;4.60;3.30;;;15.70;99.90;;;15.47;100.00;98090.06;5004581;28;20108;-38
2023/06/24 00:24:19;;;;;;;4.15;2.80;;;15.60;99.90;;;15.46;100.00;98089.16;5020556;28;20474;-37
2023/06/24 00:26:46;;;;;;;4.53;3.50;;;15.60;99.90;;;15.42;100.00;98097.38;5028257;28;20025;-37
2023/06/24 00:29:11;;;;;;;5.15;3.25;;;15.60;99.90;;;15.37;100.00;98086.09;5022641;28;20394;-38
2023/06/24 00:31:37;;;;;;;4.28;3.13;;;15.50;99.90;;;15.33;100.00;98092.47;5027382;28;20056;-37
2023/06/24 00:34:04;;;;;;;4.43;3.60;;;15.50;99.90;;;15.28;100.00;98084.69;5025371;28;20043;-37
2023/06/24 00:36:31;;;;;;;4.78;3.50;;;15.40;99.90;;;15.17;100.00;98071.91;5010316;28;20037;-38
2023/06/24 00:39:03;;;;;;;4.10;3.50;;;15.40;99.90;;;15.25;100.00;98098.13;5029324;28;20053;-38
2023/06/24 00:41:30;;;;;;;4.65;3.25;;;15.40;99.90;;;15.23;100.00;98086.69;5024523;28;20036;-38
2023/06/24 00:43:57;;;;;;;4.10;3.40;;;15.40;99.90;;;15.23;100.00;98094.66;5026823;28;20041;-37
2023/06/24 00:46:25;;;;;;;4.18;3.38;;;15.30;99.90;;;15.21;100.00;98084.09;5007156;28;20029;-37
2023/06/24 00:48:52;;;;;;;5.10;3.53;;;15.30;99.90;;;15.19;100.00;98091.28;5018664;28;20032;-38
2023/06/24 00:51:21;;;;;;;5.00;3.47;;;15.30;99.90;;;15.15;100.00;98092.38;5027599;28;20246;-38
2023/06/24 00:53:47;;;;;;;5.03;3.70;;;15.30;99.90;;;15.11;100.00;98089.91;5013988;28;20492;-37
2023/06/24 00:56:16;;;;;;;5.18;3.53;;;15.20;99.90;;;15.04;100.00;98087.53;5030243;28;20025;-38
2023/06/24 00:58:43;;;;;;;4.80;3.40;;;15.20;99.90;;;14.97;100.00;98087.88;5010175;28;20511;-37
2023/06/24 01:01:10;;;;;;;4.65;3.78;;;15.20;99.90;;;14.97;100.00;98090.53;5026865;28;20044;-37
2023/06/24 01:03:37;;;;;;;4.50;3.33;;;15.10;99.90;;;14.94;100.00;98099.47;5013624;28;20291;-37
2023/06/24 01:06:03;;;;;;;5.47;4.05;;;15.10;99.90;;;14.87;100.00;98087.38;5013481;28;20053;-37
2023/06/24 01:08:29;;;;;;;5.30;3.65;;;15.10;99.90;;;14.95;100.00;98101.22;5012364;28;20060;-37
2023/06/24 01:10:54;;;;;;;7.57;4.05;;;15.10;99.90;;;14.96;100.00;98096.75;5025150;28;20045;-37
2023/06/24 01:13:21;;;;;;;6.05;4.18;;;15.10;99.90;;;14.97;100.00;98099.34;5024987;28;20033;-37
2023/06/24 01:15:47;;;;;;;5.65;3.85;;;15.10;99.90;;;14.97;100.00;98094.03;5022917;28;20029;-38
2023/06/24 01:18:36;;;;;;;6.00;4.20;;;15.20;99.90;;;14.97;100.00;98096.69;4998278;28;20138;-37
2023/06/24 01:21:22;;;;;;;4.80;3.65;;;15.10;99.90;;;14.94;100.00;98085.34;5003134;28;20494;-37
2023/06/24 01:24:17;;;;;;;6.07;4.20;;;15.10;99.90;;;14.94;100.00;98085.34;5001936;28;20490;-37
2023/06/24 01:27:29;;;;;;;5.20;3.85;;;15.10;99.90;;;14.91;100.00;98083.66;5008989;28;20036;-37
2023/06/24 01:30:58;;;;;;;5.63;4.00;;;15.10;99.90;;;14.89;100.00;98089.06;5003918;28;20041;-38
2023/06/24 01:33:38;;;;;;;6.22;4.30;;;15.10;99.90;;;14.87;100.00;98088.25;4959784;28;20128;-37
2023/06/24 01:36:08;;;;;;;6.78;4.18;;;15.00;99.90;;;14.78;100.00;98082.47;5008397;28;20052;-37
2023/06/24 01:38:52;;;;;;;5.40;3.95;;;15.00;99.90;;;14.79;100.00;98090.38;5023053;28;20036;-37
2023/06/24 01:41:24;;;;;;;6.60;4.20;;;14.90;99.90;;;14.77;100.00;98086.06;5029391;28;20052;-37
2023/06/24 01:43:53;;;;;;;6.80;4.32;;;14.90;99.90;;;14.73;100.00;98082.66;5005683;28;20025;-38
2023/06/24 01:46:25;;;;;;;5.57;4.40;;;14.90;99.90;;;14.70;100.00;98077.50;5013787;28;20064;-38
2023/06/24 01:48:58;;;;;;;5.70;4.07;;;14.90;99.90;;;14.65;100.00;98077.69;5022057;28;20025;-37
2023/06/24 01:51:26;;;;;;;6.40;4.40;;;14.80;99.90;;;14.64;100.00;98075.09;5026107;28;20297;-37
2023/06/24 01:54:03;;;;;;;5.28;4.25;;;14.80;99.90;;;14.61;100.00;98080.56;5019651;28;20037;-37
2023/06/24 01:56:29;;;;;;;6.63;4.40;;;14.80;99.90;;;14.51;100.00;98058.81;5008044;28;20253;-37
2023/06/24 01:58:58;;;;;;;5.60;4.00;;;14.70;99.90;;;14.58;100.00;98073.56;5020878;28;20471;-37
2023/06/24 02:01:25;;;;;;;7.38;4.60;;;14.70;99.90;;;14.56;100.00;98071.91;4996899;28;20029;-37
2023/06/24 02:03:55;;;;;;;6.15;4.38;;;14.70;99.90;;;14.54;100.00;98069.28;5023647;28;20032;-37
2023/06/24 02:06:22;;;;;;;5.35;3.80;;;14.70;99.90;;;14.51;100.00;98069.41;5004572;28;20037;-37
2023/06/24 02:08:51;;;;;;;4.35;3.92;;;14.70;99.90;;;14.46;100.00;98066.09;5006002;28;20158;-37
2023/06/24 02:11:18;;;;;;;5.30;3.97;;;14.60;99.90;;;14.42;100.00;98072.47;4999926;28;20036;-37
2023/06/24 02:13:44;;;;;;;6.97;4.30;;;14.60;99.90;;;14.42;100.00;98072.47;5020850;28;20029;-37
2023/06/24 02:16:14;;;;;;;5.80;3.65;;;14.60;99.90;;;14.38;100.00;98071.72;5016571;28;20487;-37
2023/06/24 02:18:42;;;;;;;5.85;4.10;;;14.50;99.90;;;14.35;100.00;98069.19;4996785;28;20029;-37
2023/06/24 02:21:08;;;;;;;6.03;4.25;;;14.50;99.90;;;14.32;100.00;98074.66;5021359;28;20028;-37
2023/06/24 02:23:36;;;;;;;5.97;3.95;;;14.50;99.90;;;14.26;100.00;98062.47;5000304;28;20131;-37
2023/06/24 02:26:05;;;;;;;5.57;4.40;;;14.40;99.90;;;14.27;100.00;98066.88;5021388;28;20469;-37
2023/06/24 02:28:33;;;;;;;6.25;3.88;;;14.40;99.90;;;14.24;100.00;98055.53;5022572;28;20033;-37
2023/06/24 02:30:59;;;;;;;5.15;4.22;;;14.40;99.90;;;14.22;100.00;98055.56;5001784;28;20047;-37
2023/06/24 02:33:26;;;;;;;6.53;4.20;;;14.40;99.90;;;14.21;100.00;98056.53;5016666;28;20134;-37
2023/06/24 02:35:52;;;;;;;5.07;3.88;;;14.40;99.90;;;14.17;100.00;98046.09;5017323;28;20056;-37
2023/06/24 02:38:18;;;;;;;6.60;4.38;;;14.40;99.90;;;14.22;100.00;98050.28;5018670;28;20136;-37
2023/06/24 02:40:46;;;;;;;5.78;4.35;;;14.40;99.90;;;14.18;100.00;98051.34;5005054;28;20678;-39
2023/06/24 02:43:11;;;;;;;5.63;4.38;;;14.40;99.90;;;14.20;100.00;98049.47;5013788;28;20028;-37
2023/06/24 02:45:39;;;;;;;6.85;4.53;;;14.40;99.90;;;14.19;100.00;98052.19;5017269;28;20172;-37
2023/06/24 02:48:06;;;;;;;5.15;4.22;;;14.40;99.90;;;14.17;100.00;98049.59;4998534;28;20379;-38
2023/06/24 02:50:33;;;;;;;6.10;4.80;;;14.40;99.90;;;14.15;100.00;98050.59;5017389;28;20032;-39
2023/06/24 02:52:59;;;;;;;5.35;4.38;;;14.30;99.90;;;14.13;100.00;98059.47;5000647;28;20542;-37
2023/06/24 02:55:26;;;;;;;6.45;4.45;;;14.30;99.90;;;14.08;100.00;98044.66;5017330;28;20481;-37
2023/06/24 02:57:53;;;;;;;6.97;4.03;;;14.30;99.90;;;14.13;100.00;98061.25;5029237;28;20118;-37
2023/06/24 03:00:20;;;;;;;5.50;4.28;;;14.30;99.90;;;14.12;100.00;98059.53;5026148;28;20129;-37
2023/06/24 03:02:47;;;;;;;6.15;5.00;;;14.30;99.90;;;14.11;100.00;98056.03;5018745;28;20056;-37
2023/06/24 03:05:14;;;;;;;8.45;4.93;;;14.30;99.90;;;14.08;100.00;98064.09;5017337;28;20034;-37
2023/06/24 03:07:40;;;;;;;5.90;4.57;;;14.30;99.90;;;14.06;100.00;98071.25;5024844;28;20029;-37
2023/06/24 03:10:07;;;;;;;6.93;4.65;;;14.20;99.90;;;14.03;100.00;98071.41;5002953;28;20060;-37
2023/06/24 03:12:33;;;;;;;5.70;4.30;;;14.20;99.90;;;14.03;100.00;98068.75;5027608;28;20033;-37
2023/06/24 03:14:59;;;;;;;5.57;4.80;;;14.20;99.90;;;14.02;100.00;98066.16;5021388;28;20036;-37
2023/06/24 03:17:25;;;;;;;5.78;4.65;;;14.20;99.90;;;14.01;100.00;98062.59;5018470;28;20438;-37
2023/06/24 03:19:51;;;;;;;6.25;4.38;;;14.20;99.90;;;14.00;100.00;98062.66;5026842;28;20086;-37
2023/06/24 03:22:19;;;;;;;6.50;5.05;;;14.20;99.90;;;13.98;100.00;98059.22;5026845;28;20033;-38
2023/06/24 03:24:45;;;;;;;5.97;4.55;;;14.10;99.90;;;13.98;100.00;98069.81;5027132;28;20025;-37
2023/06/24 03:27:11;;;;;;;6.10;4.78;;;14.20;99.90;;;13.98;100.00;98075.13;5021000;28;20791;-38
2023/06/24 03:29:36;;;;;;;6.80;4.60;;;14.20;99.90;;;13.98;100.00;98076.00;5026791;28;20484;-37
2023/06/24 03:32:02;;;;;;;6.53;4.80;;;14.20;99.90;;;13.99;100.00;98080.38;5019354;28;20033;-37
2023/06/24 03:34:28;;;;;;;5.25;4.65;;;14.20;99.90;;;13.99;100.00;98082.19;5021582;28;20608;-37
2023/06/24 03:36:54;;;;;;;7.40;4.65;;;14.20;99.90;;;14.03;100.00;98084.66;5027738;28;20640;-37
2023/06/24 03:39:21;;;;;;;5.40;4.25;;;14.20;99.90;;;14.05;100.00;98097.81;5025509;28;20036;-37
2023/06/24 03:41:47;;;;;;;5.97;4.63;;;14.30;99.90;;;14.08;100.00;98103.00;5020472;28;20036;-37
2023/06/24 03:44:12;;;;;;;5.75;4.70;;;14.30;99.90;;;14.11;100.00;98102.91;5018675;28;20032;-37
2023/06/24 03:46:38;;;;;;;6.72;4.57;;;14.30;99.90;;;14.15;100.00;98109.81;5023124;28;20029;-37
2023/06/24 03:49:04;;;;;;;6.85;4.20;;;14.40;99.90;;;14.19;100.00;98110.53;5019102;28;20171;-38
2023/06/24 03:51:30;;;;;;;6.28;4.65;;;14.40;99.90;;;14.23;100.00;98115.69;5024662;28;20033;-37
2023/06/24 03:53:56;;;;;;;5.53;4.40;;;14.40;99.90;;;14.26;100.00;98110.22;5025416;28;20523;-37
2023/06/24 03:56:22;;;;;;;6.78;4.55;;;14.50;99.90;;;14.20;100.00;98102.53;5025704;28;20063;-37
2023/06/24 03:58:48;;;;;;;7.72;4.93;;;14.50;99.90;;;14.35;100.00;98114.31;5027770;28;20320;-37
2023/06/24 04:01:14;;;;;;;5.70;4.45;;;14.60;99.90;;;14.42;100.00;98109.63;5015580;28;20033;-37
2023/06/24 04:03:39;;;;;;;5.35;4.20;;;14.60;99.90;;;14.52;100.00;98118.94;5020631;28;20032;-37
2023/06/24 04:06:05;;;;;;;5.72;4.32;;;14.70;99.90;;;14.59;100.00;98115.13;5025854;28;20374;-37
2023/06/24 04:08:31;;;;;;;4.15;3.72;;;14.80;99.90;;;14.72;100.00;98119.94;5019553;28;20061;-39
2023/06/24 04:11:03;;;;;;;5.07;4.57;;;14.90;99.90;;;14.83;100.00;98128.28;5027266;28;20739;-37
2023/06/24 04:13:29;;;;;;;5.40;4.13;;;15.00;99.90;;;14.97;100.00;98122.41;5025734;28;20685;-37
2023/06/24 04:15:55;;;;;;;7.03;4.47;;;15.10;99.90;;;15.06;100.00;98124.66;5009788;28;20063;-37
2023/06/24 04:18:21;;;;;;;4.95;4.32;;;15.30;99.90;;;15.16;100.00;98130.41;5029444;28;20426;-37
2023/06/24 04:20:46;;;;;;;5.28;4.10;;;15.40;99.90;;;15.24;100.00;98126.50;5030611;28;20041;-39
2023/06/24 04:23:14;;;;;;;5.40;4.15;;;15.40;99.90;;;15.33;100.00;98130.53;5028799;28;20026;-37
2023/06/24 04:25:40;;;;;;;5.00;4.13;;;15.50;99.90;;;15.42;100.00;98137.25;5025710;28;20025;-37
2023/06/24 04:28:06;;;;;;;7.18;4.10;;;15.60;99.90;;;15.52;100.00;98141.19;5021848;28;20033;-38
2023/06/24 04:30:35;;;;;;;5.28;4.10;;;15.70;99.90;;;15.62;100.00;98136.34;5025756;28;20074;-37
2023/06/24 04:33:01;;;;;;;4.65;3.50;;;15.80;99.90;;;15.73;100.00;98142.03;5020006;28;20691;-37
2023/06/24 04:35:27;;;;;;;4.53;3.80;;;15.90;99.90;;;15.81;100.00;98137.25;5031108;28;20533;-37
2023/06/24 04:37:52;;;;;;;4.82;3.72;;;16.00;99.90;;;15.91;100.00;98148.31;5028146;28;20040;-38
2023/06/24 04:40:19;;;;;;;5.35;4.20;;;16.10;99.90;;;15.99;100.00;98142.66;5030004;28;20579;-37
2023/06/24 04:42:45;;;;;;;7.38;4.40;;;16.20;99.90;;;16.06;100.00;98143.22;5027071;28;20192;-37
2023/06/24 04:45:11;;;;;;;5.53;3.88;;;16.20;99.90;;;16.12;100.00;98151.78;5025269;28;20029;-39
2023/06/24 04:47:37;;;;;;;4.88;4.32;;;16.30;99.90;;;16.19;100.00;98152.34;5028007;28;20401;-37
2023/06/24 04:50:03;;;;;;;6.03;4.13;;;16.30;99.90;;;16.25;100.00;98157.38;5027833;28;20224;-38
2023/06/24 04:52:29;;;;;;;8.10;4.07;;;16.40;99.90;;;16.22;100.00;98145.09;5030722;28;20028;-37
2023/06/24 04:54:55;;;;;;;5.18;4.18;;;16.40;99.90;;;16.27;100.00;98136.84;5030798;28;20095;-38
2023/06/24 04:57:29;;;;;;;5.75;3.88;;;16.50;99.90;;;16.34;100.00;98138.28;5027014;28;20043;-37
2023/06/24 04:59:56;;;;;;;5.20;3.88;;;16.50;99.90;;;16.41;100.00;98144.19;5031166;28;20068;-37
2023/06/24 05:02:22;;;;;;;5.78;4.07;;;16.60;99.90;;;16.53;100.00;98150.72;5021178;28;20025;-37
2023/06/24 05:04:48;;;;;;;4.80;3.83;;;16.60;99.90;;;16.59;100.00;98147.75;5026829;28;20040;-37
2023/06/24 05:07:14;;;;;;;5.47;4.15;;;16.70;99.90;;;16.63;100.00;98143.97;5008204;28;20155;-37
2023/06/24 05:09:40;;;;;;;6.47;4.22;;;16.80;99.90;;;16.73;100.00;98150.59;5026275;28;20126;-37
2023/06/24 05:12:06;;;;;;;5.22;3.85;;;16.90;99.90;;;16.74;100.00;98143.44;5023139;28;20027;-37
2023/06/24 05:14:34;;;;;;;5.32;4.03;;;16.90;99.90;;;16.85;100.00;98159.81;5023288;28;20037;-38
2023/06/24 05:17:00;;;;;;;8.00;4.07;;;17.00;99.90;;;16.94;100.00;98162.00;5027372;28;20552;-37
2023/06/24 05:19:26;;;;;;;7.00;4.50;;;17.10;99.90;;;16.98;100.00;98160.91;5026367;28;20041;-38
2023/06/24 05:21:52;;;;;;;5.25;4.07;;;17.10;99.90;;;17.06;100.00;98170.31;5028075;28;21351;-37
2023/06/24 05:24:18;;;;;;;5.55;4.30;;;17.20;99.90;;;17.18;100.00;98167.00;5025717;28;20052;-38
2023/06/24 05:26:48;;;;;;;4.70;3.85;;;17.20;99.90;;;17.38;100.00;98157.97;5019189;28;20033;-38
2023/06/24 05:29:13;;;;;;;5.55;3.78;;;17.40;99.90;;;17.59;100.00;98163.97;5022714;28;20437;-37
2023/06/24 05:31:40;;;;;;;6.57;4.20;;;17.50;99.90;;;18.03;100.00;98158.06;5016500;28;20766;-37
2023/06/24 05:34:06;;;;;;;5.65;4.13;;;17.80;99.90;;;18.66;96.82;98164.34;5018377;28;20032;-37
2023/06/24 05:36:32;;;;;;;6.03;4.38;;;18.10;99.90;;;19.04;93.03;98161.25;5029106;28;22129;-38
2023/06/24 05:38:57;;;;;;;4.82;3.97;;;18.50;99.90;;;19.08;90.90;98166.34;5024238;28;20064;-37
2023/06/24 05:41:23;;;;;;;5.30;4.07;;;18.70;99.90;;;19.01;92.60;98167.66;5016807;28;20033;-37
2023/06/24 05:44:01;;;;;;;4.78;3.70;;;18.80;99.90;;;18.95;94.11;98161.81;5024841;28;20170;-37
2023/06/24 05:46:26;;;;;;;5.43;3.97;;;18.80;99.90;;;18.90;93.49;98164.78;5018178;28;20494;-37
2023/06/24 05:48:52;;;;;;;5.50;4.00;;;18.90;99.90;;;18.87;92.42;98160.44;5024201;28;20510;-38
2023/06/24 05:51:18;;;;;;;6.18;4.20;;;18.90;99.90;;;18.90;92.16;98167.44;5014591;28;20195;-38
2023/06/24 05:53:43;;;;;;;7.00;3.80;;;19.00;99.90;;;18.95;90.23;98159.13;5009733;28;20444;-37
2023/06/24 05:56:09;;;;;;;5.18;3.53;;;19.00;99.90;;;19.02;89.58;98171.19;5026616;28;20025;-38
2023/06/24 05:58:35;;;;;;;4.70;4.03;;;19.10;99.90;;;19.12;90.05;98169.69;5020333;28;20041;-37
2023/06/24 06:01:01;;;;;;;4.90;3.47;;;19.20;99.90;;;19.26;88.99;98172.41;5003294;28;20057;-37
2023/06/24 06:03:26;;;;;;;5.05;3.47;;;19.30;99.90;;;19.41;86.50;98167.09;5028533;28;20175;-38
2023/06/24 06:05:52;;;;;;;5.07;3.72;;;19.50;99.90;;;19.59;85.69;98171.31;5021005;28;20041;-38
2023/06/24 06:08:18;;;;;;;5.88;3.92;;;19.60;99.90;;;19.74;85.85;98172.22;5016410;28;20772;-37
2023/06/24 06:10:44;;;;;;;5.32;3.95;;;19.80;99.90;;;19.87;81.80;98180.34;5023355;28;20033;-38
2023/06/24 06:13:09;;;;;;;3.97;3.58;;;19.90;99.90;;;20.02;81.18;98179.38;5023438;28;20033;-38
2023/06/24 06:15:35;;;;;;;5.63;4.22;;;20.00;99.90;;;20.14;77.02;98166.19;5026146;28;20071;-38
2023/06/24 06:18:01;;;;;;;6.35;3.97;;;20.20;99.90;;;20.33;74.30;98172.09;5028745;28;20021;-37
2023/06/24 06:20:26;;;;;;;5.50;3.70;;;20.30;99.90;;;20.48;71.85;98177.41;5027333;28;20049;-39
2023/06/24 06:22:52;;;;;;;5.85;4.20;;;20.40;99.90;;;20.58;72.64;98173.16;5025814;28;20036;-38
2023/06/24 06:25:18;;;;;;;5.05;3.75;;;20.50;99.90;;;20.68;70.04;98171.63;5027562;28;20040;-38
2023/06/24 06:27:43;;;;;;;4.32;3.55;;;20.60;99.90;;;20.79;68.10;98168.22;5030383;28;20458;-38
2023/06/24 06:30:10;;;;;;;5.07;3.70;;;20.70;99.90;;;20.87;67.68;98165.91;5030562;28;20049;-37
2023/06/24 06:32:35;;;;;;;5.75;3.70;;;20.80;99.90;;;21.02;67.27;98169.38;5030936;28;21156;-39
2023/06/24 06:35:01;;;;;;;5.85;3.97;;;20.90;99.90;;;21.17;67.43;98167.47;5032899;28;20051;-38
2023/06/24 06:37:27;;;;;;;5.07;3.88;;;21.10;99.90;;;21.31;63.88;98174.59;5032400;28;20487;-37
2023/06/24 06:39:53;;;;;;;4.28;3.67;;;21.20;99.90;;;21.42;62.09;98176.53;5034488;28;20040;-37
2023/06/24 06:42:18;;;;;;;7.38;3.60;;;21.30;99.90;;;21.52;59.55;98167.78;5033392;28;20382;-38
2023/06/24 06:44:44;;;;;;;4.90;3.88;;;21.40;99.90;;;21.58;58.67;98162.94;5033894;28;20029;-38
2023/06/24 06:47:11;;;;;;;5.25;3.47;;;21.50;99.90;;;21.70;61.09;98162.94;5029298;28;20056;-38
2023/06/24 06:49:36;;;;;;;6.60;3.90;;;21.60;99.90;;;21.83;56.78;98168.31;5034854;28;20061;-38
2023/06/24 06:52:02;;;;;;;5.95;3.53;;;21.70;99.90;;;21.89;54.32;98161.63;5032105;28;20036;-38
2023/06/24 06:54:28;;;;;;;3.70;3.30;;;21.80;99.90;;;21.99;54.00;98162.69;5036466;28;20125;-39
2023/06/24 06:56:55;;;;;;;3.72;3.15;;;21.90;99.70;;;22.17;54.59;98168.56;5035750;28;20037;-40
2023/06/24 06:59:21;;;;;;;5.97;2.85;;;22.00;99.80;;;22.35;53.05;98158.34;5033849;28;20236;-37
2023/06/24 07:01:46;;;;;;;3.83;3.10;;;22.10;99.30;;;22.49;52.03;98157.34;5034525;28;20029;-39
2023/06/24 07:04:12;;;;;;;4.03;3.10;;;22.30;98.70;;;22.63;51.19;98156.31;5030598;28;20037;-37
2023/06/24 07:06:38;;;;;;;4.07;3.00;;;22.40;98.40;;;22.64;50.30;98156.19;5025635;28;20469;-38
2023/06/24 07:09:03;;;;;;;3.03;2.65;;;22.50;97.30;;;22.71;49.90;98161.97;5029166;28;20505;-38
2023/06/24 07:11:29;;;;;;;6.25;3.03;;;22.50;97.20;;;22.68;49.96;98155.03;5036548;28;20414;-38
2023/06/24 07:13:55;;;;;;;4.88;3.13;;;22.60;96.90;;;22.60;49.97;98160.09;5033483;28;20037;-38
2023/06/24 07:16:21;;;;;;;4.38;3.05;;;22.60;96.60;;;22.57;50.45;98156.78;5032198;28;20613;-39
2023/06/24 07:18:46;;;;;;;4.03;3.08;;;22.50;96.60;;;22.70;52.73;98165.63;5035490;28;20072;-38
2023/06/24 07:21:12;;;;;;;3.88;3.13;;;22.60;97.70;;;22.72;49.94;98162.84;5013288;28;20036;-38
2023/06/24 07:23:38;;;;;;;3.35;2.70;;;22.60;96.10;;;22.74;50.77;98142.94;5034287;28;20044;-38
2023/06/24 07:26:03;;;;;;;4.60;3.10;;;22.70;96.70;;;22.97;49.22;98164.53;5032086;28;20029;-38
2023/06/24 07:28:29;;;;;;;4.90;2.88;;;22.90;95.90;;;23.03;49.81;98156.03;5034728;28;20056;-38
2023/06/24 07:30:55;;;;;;;4.00;2.97;;;23.00;96.20;;;23.16;48.59;98164.03;5033850;28;20041;-38
2023/06/24 07:33:20;;;;;;;3.17;2.80;;;23.00;95.30;;;23.26;47.11;98159.69;5026031;28;20513;-38
2023/06/24 07:35:46;;;;;;;4.50;3.38;;;23.10;94.50;;;23.30;47.37;98163.84;5031762;28;20060;-38
2023/06/24 07:38:12;;;;;;;4.70;3.08;;;23.20;94.10;;;23.35;48.15;98167.03;5031264;28;20024;-39
2023/06/24 07:40:38;;;;;;;3.92;2.85;;;23.20;94.40;;;23.42;46.59;98162.91;5032940;28;20028;-38
2023/06/24 07:43:03;;;;;;;3.90;2.97;;;23.30;94.00;;;23.41;45.60;98161.16;5035040;28;20168;-38
2023/06/24 07:45:29;;;;;;;2.92;2.47;;;23.40;93.00;;;23.40;46.43;98159.47;5034243;28;20066;-38
2023/06/24 07:47:55;;;;;;;3.75;3.15;;;23.30;93.10;;;23.44;46.24;98165.47;5038637;28;20033;-38
2023/06/24 07:50:20;;;;;;;5.07;3.50;;;23.40;93.40;;;23.49;47.98;98163.28;5036567;28;20156;-38
2023/06/24 07:52:46;;;;;;;4.22;3.13;;;23.40;93.30;;;23.49;45.51;98159.72;5035458;28;20037;-39
2023/06/24 07:55:12;;;;;;;3.72;2.95;;;23.40;92.60;;;23.40;45.86;98166.66;5032418;28;20131;-39
2023/06/24 07:57:37;;;;;;;4.25;3.35;;;23.30;92.30;;;23.42;45.62;98162.06;5037748;28;20259;-37
2023/06/24 08:00:09;;;;;;;4.70;3.30;;;23.30;92.20;;;23.34;45.81;98154.53;5034465;28;20037;-39
2023/06/24 08:02:34;;;;;;;3.30;2.93;;;23.30;92.00;;;23.47;48.67;98161.69;5010534;28;20052;-40
2023/06/24 08:05:00;;;;;;;5.50;3.38;;;23.40;93.40;;;23.50;46.53;98159.59;5034891;28;20403;-40
2023/06/24 08:07:26;;;;;;;3.38;2.92;;;23.50;92.60;;;23.53;46.16;98155.84;5033158;28;20033;-41
2023/06/24 08:09:51;;;;;;;4.63;3.03;;;23.50;92.30;;;23.50;45.40;98156.91;5037561;28;20044;-39
2023/06/24 08:12:17;;;;;;;4.35;3.47;;;23.50;91.70;;;23.44;45.71;98155.56;5036588;28;20029;-39
2023/06/24 08:14:43;;;;;;;3.35;3.05;;;23.40;91.70;;;23.48;46.44;98149.94;5036017;28;20037;-38
2023/06/24 08:17:08;;;;;;;4.70;3.38;;;23.40;92.40;;;23.41;45.79;98155.78;5029627;28;20500;-38
2023/06/24 08:19:34;;;;;;;4.32;3.10;;;23.40;91.60;;;23.53;46.06;98154.00;5034019;28;20052;-39
2023/06/24 08:22:00;;;;;;;4.13;2.97;;;23.40;92.00;;;23.66;46.63;98148.50;5037161;28;20029;-38
2023/06/24 08:24:25;;;;;;;6.70;3.10;;;23.50;92.20;;;23.85;45.49;98149.75;5036173;28;20029;-38
2023/06/24 08:26:52;;;;;;;3.55;2.78;;;23.70;92.00;;;23.91;45.12;98149.28;5036424;28;20033;-38
2023/06/24 08:29:18;;;;;;;5.97;3.42;;;23.80;91.20;;;23.98;43.96;98150.50;5034218;28;20110;-38
2023/06/24 08:31:44;;;;;;;3.90;3.20;;;23.80;90.40;;;23.77;43.34;98135.03;5034206;28;20383;-38
2023/06/24 08:34:10;;;;;;;5.50;3.15;;;23.80;89.20;;;23.69;44.53;98142.88;5032828;28;20475;-38
2023/06/24 08:36:37;;;;;;;4.40;3.25;;;23.70;90.10;;;23.71;46.46;98140.06;5033318;28;20029;-38
2023/06/24 08:39:03;;;;;;;3.70;3.15;;;23.60;91.10;;;23.66;45.73;98147.66;5035257;28;20048;-39
2023/06/24 08:41:28;;;;;;;3.53;2.80;;;23.60;91.30;;;23.74;46.82;98146.06;5031021;28;20552;-39
2023/06/24 08:43:54;;;;;;;3.55;3.25;;;23.60;91.30;;;23.77;46.99;98140.41;5021245;28;20078;-38
2023/06/24 08:46:23;;;;;;;3.95;3.00;;;23.70;91.80;;;23.89;46.66;98138.63;5027406;28;20025;-37
2023/06/24 08:48:53;;;;;;;3.20;2.90;;;23.80;91.80;;;24.09;44.14;98146.94;5034205;28;20572;-37
2023/06/24 08:51:24;;;;;;;3.22;2.75;;;23.90;90.30;;;24.16;44.00;98148.19;5018084;28;20041;-38
2023/06/24 08:53:51;;;;;;;4.95;3.03;;;24.00;89.70;;;24.25;43.93;98144.72;5013566;28;20034;-38
2023/06/24 08:56:17;;;;;;;5.38;3.13;;;24.10;89.70;;;24.34;44.36;98149.38;5036380;28;20021;-39
2023/06/24 08:58:42;;;;;;;3.70;2.40;;;24.20;89.80;;;24.33;41.65;98142.25;5017996;28;20072;-38
2023/06/24 09:01:08;;;;;;;3.80;2.75;;;24.20;85.30;;;24.36;42.80;98142.00;5029538;28;20116;-38
2023/06/24 09:03:35;;;;;;;3.10;2.67;;;24.20;85.90;;;24.38;44.12;98142.72;5032729;28;20113;-38
2023/06/24 09:06:01;;;;;;;3.53;3.00;;;24.30;89.00;;;24.40;43.40;98140.75;5035911;28;20119;-38
2023/06/24 09:08:26;;;;;;;4.25;2.75;;;24.30;88.60;;;24.38;42.84;98140.03;5029469;28;20072;-37
2023/06/24 09:10:55;;;;;;;3.72;2.85;;;24.30;86.70;;;24.45;42.56;98140.41;5033715;28;20136;-38
2023/06/24 09:13:27;;;;;;;3.92;2.90;;;24.30;86.20;;;24.45;40.74;98143.09;5028905;28;20028;-40
2023/06/24 09:15:53;;;;;;;4.78;3.03;;;24.30;83.60;;;24.47;43.48;98142.97;5029599;28;20021;-38
2023/06/24 09:18:18;;;;;;;3.20;2.60;;;24.40;86.40;;;24.45;43.07;98143.09;5032881;28;20034;-38
2023/06/24 09:20:49;;;;;;;4.68;2.70;;;24.30;87.10;;;24.56;42.28;98132.31;5033588;28;20033;-38
2023/06/24 09:23:16;;;;;;;5.07;3.25;;;24.40;86.90;;;24.64;42.95;98120.03;5031902;28;20323;-38
2023/06/24 09:25:42;;;;;;;3.60;3.30;;;24.50;86.60;;;24.50;42.20;98124.69;5036568;28;20075;-39
2023/06/24 09:28:08;;;;;;;6.32;3.15;;;24.40;86.00;;;24.38;41.68;98120.31;5032440;28;20021;-39
2023/06/24 09:30:33;;;;;;;3.83;3.03;;;24.30;83.70;;;24.45;40.37;98116.13;5032288;28;20510;-37
2023/06/24 09:32:59;;;;;;;4.13;3.10;;;24.40;82.80;;;24.43;41.33;98112.72;5034174;28;20040;-38
2023/06/24 09:35:26;;;;;;;5.35;3.03;;;24.40;82.90;;;24.55;40.54;98114.44;5034220;28;20037;-38
2023/06/24 09:37:59;;;;;;;6.70;3.25;;;24.40;82.00;;;24.77;40.92;98112.63;5006443;28;20439;-38
2023/06/24 09:40:24;;;;;;;3.97;2.95;;;24.60;82.40;;;24.81;40.70;98091.66;5030675;28;20491;-40
2023/06/24 09:42:56;;;;;;;6.13;3.53;;;24.80;81.50;;;24.93;39.27;98110.34;5032542;28;20165;-39
2023/06/24 09:45:27;;;;;;;2.78;2.40;;;24.90;79.80;;;25.01;39.25;98106.16;5029639;28;20033;-39
2023/06/24 09:47:54;;;;;;;3.35;2.70;;;25.00;79.50;;;24.95;38.72;98104.84;5035295;28;20017;-39
2023/06/24 09:50:20;;;;;;;3.55;2.83;;;24.90;77.80;;;24.98;39.20;98093.78;5035508;28;20099;-38
2023/06/24 09:52:48;;;;;;;3.35;3.05;;;24.90;78.80;;;24.99;40.20;98100.88;5033311;28;20493;-39
2023/06/24 09:55:15;;;;;;;3.97;3.05;;;24.90;80.30;;;25.09;40.27;98106.38;5025525;28;20119;-38
2023/06/24 09:57:50;;;;;;;5.68;3.20;;;25.00;80.30;;;25.03;38.56;98102.31;5024168;28;20024;-38
2023/06/24 10:00:19;;;;;;;4.80;3.22;;;25.00;77.80;;;24.99;39.38;98086.53;5030553;28;20057;-38
2023/06/24 10:02:46;;;;;;;3.08;2.78;;;24.90;78.40;;;25.14;39.10;98098.69;5028981;28;20025;-39
2023/06/24 10:05:14;;;;;;;3.13;2.83;;;25.10;78.40;;;25.13;39.59;98086.22;5010348;28;20403;-39
2023/06/24 10:07:41;;;;;;;4.15;2.85;;;25.10;78.20;;;25.24;39.78;98094.28;5034792;28;20037;-38
2023/06/24 10:10:09;;;;;;;4.50;3.00;;;25.20;80.30;;;25.29;38.46;98092.03;5004707;28;20052;-39
2023/06/24 10:12:36;;;;;;;4.25;3.10;;;25.20;76.40;;;25.16;38.01;98091.34;5027745;28;20060;-38
2023/06/24 10:15:03;;;;;;;3.45;2.80;;;25.20;76.10;;;25.13;38.00;98086.22;5031512;28;20138;-38
2023/06/24 10:17:30;;;;;;;4.10;2.70;;;25.10;75.40;;;24.95;35.48;98083.25;5013386;28;20094;-38